sensor_id;sensor_type;location;lat;lon;timestamp;temperature;humidity
21906;DHT22;11117;48.644;9.006;2023-05-10T00:00:19;13.30;99.90
21906;DHT22;11117;48.644;9.006;2023-05-10T00:02:45;13.30;99.90
21906;DHT22;11117;48.644;9.006;2023-05-10T00:05:10;13.20;99.90
21906;DHT22;11117;48.644;9.006;2023-05-10T00:07:36;13.20;99.90
21906;DHT22;11117;48.644;9.006;2023-05-10T00:10:01;13.20;99.90
21906;DHT22;11117;48.644;9.006;2023-05-10T00:12:27;13.10;99.90
21906;DHT22;11117;48.644;9.006;2023-05-10T00:14:52;13.10;99.90
21906;DHT22;11117;48.644;9.006;2023-05-10T00:17:18;13.00;99.90
21906;DHT22;11117;48.644;9.006;2023-05-10T00:19:43;13.00;99.90
21906;DHT22;11117;48.644;9.006;2023-05-10T00:22:10;13.00;99.90
21906;DHT22;11117;48.644;9.006;2023-05-10T00:24:35;13.00;99.90
21906;DHT22;11117;48.644;9.006;2023-05-10T00:27:01;12.90;99.90
21906;DHT22;11117;48.644;9.006;2023-05-10T00:29:26;13.00;99.90
21906;DHT22;11117;48.644;9.006;2023-05-10T00:31:52;12.80;99.90
21906;DHT22;11117;48.644;9.006;2023-05-10T00:34:17;12.70;99.90
21906;DHT22;11117;48.644;9.006;2023-05-10T00:36:43;12.60;99.90
21906;DHT22;11117;48.644;9.006;2023-05-10T00:39:08;12.60;99.90
21906;DHT22;11117;48.644;9.006;2023-05-10T00:41:34;12.50;99.90
21906;DHT22;11117;48.644;9.006;2023-05-10T00:43:59;12.50;99.90
21906;DHT22;11117;48.644;9.006;2023-05-10T00:46:26;12.40;99.90
21906;DHT22;11117;48.644;9.006;2023-05-10T00:48:52;12.40;99.90
21906;DHT22;11117;48.644;9.006;2023-05-10T00:51:18;12.40;99.90
21906;DHT22;11117;48.644;9.006;2023-05-10T00:53:47;12.30;99.90
21906;DHT22;11117;48.644;9.006;2023-05-10T00:56:13;12.30;99.90
21906;DHT22;11117;48.644;9.006;2023-05-10T00:58:39;12.30;99.90
21906;DHT22;11117;48.644;9.006;2023-05-10T01:01:05;12.20;99.90
21906;DHT22;11117;48.644;9.006;2023-05-10T01:03:32;12.20;99.90
21906;DHT22;11117;48.644;9.006;2023-05-10T01:05:58;12.20;99.90
21906;DHT22;11117;48.644;9.006;2023-05-10T01:08:24;12.20;99.90
21906;DHT22;11117;48.644;9.006;2023-05-10T01:10:50;12.10;99.90
21906;DHT22;11117;48.644;9.006;2023-05-10T01:13:34;12.10;99.90
21906;DHT22;11117;48.644;9.006;2023-05-10T01:16:00;12.20;99.90
21906;DHT22;11117;48.644;9.006;2023-05-10T01:18:26;12.20;99.90
21906;DHT22;11117;48.644;9.006;2023-05-10T01:27:17;12.50;99.90
21906;DHT22;11117;48.644;9.006;2023-05-10T01:35:07;12.40;99.90
21906;DHT22;11117;48.644;9.006;2023-05-10T01:41:01;12.30;99.90
21906;DHT22;11117;48.644;9.006;2023-05-10T01:43:41;12.40;99.90
21906;DHT22;11117;48.644;9.006;2023-05-10T01:46:14;12.40;99.90
21906;DHT22;11117;48.644;9.006;2023-05-10T01:48:47;12.40;99.90
21906;DHT22;11117;48.644;9.006;2023-05-10T01:51:17;12.20;99.90
21906;DHT22;11117;48.644;9.006;2023-05-10T01:53:46;12.30;99.90
21906;DHT22;11117;48.644;9.006;2023-05-10T01:56:14;12.30;99.90
21906;DHT22;11117;48.644;9.006;2023-05-10T01:58:43;12.30;99.90
21906;DHT22;11117;48.644;9.006;2023-05-10T02:01:11;12.30;99.90
21906;DHT22;11117;48.644;9.006;2023-05-10T02:03:38;12.20;99.90
21906;DHT22;11117;48.644;9.006;2023-05-10T02:06:05;12.20;99.90
21906;DHT22;11117;48.644;9.006;2023-05-10T02:08:33;12.30;99.90
21906;DHT22;11117;48.644;9.006;2023-05-10T02:11:01;12.30;99.90
21906;DHT22;11117;48.644;9.006;2023-05-10T02:13:27;12.30;99.90
21906;DHT22;11117;48.644;9.006;2023-05-10T02:15:55;12.40;99.90
21906;DHT22;11117;48.644;9.006;2023-05-10T02:18:22;12.40;99.90
21906;DHT22;11117;48.644;9.006;2023-05-10T02:20:49;12.40;99.90
21906;DHT22;11117;48.644;9.006;2023-05-10T02:23:17;12.30;99.90
21906;DHT22;11117;48.644;9.006;2023-05-10T02:25:44;12.20;99.90
21906;DHT22;11117;48.644;9.006;2023-05-10T02:28:10;12.20;99.90
21906;DHT22;11117;48.644;9.006;2023-05-10T02:30:37;12.20;99.90
21906;DHT22;11117;48.644;9.006;2023-05-10T02:33:04;12.20;99.90
21906;DHT22;11117;48.644;9.006;2023-05-10T02:35:31;12.10;99.90
21906;DHT22;11117;48.644;9.006;2023-05-10T02:37:58;12.10;99.90
21906;DHT22;11117;48.644;9.006;2023-05-10T02:40:26;12.10;99.90
21906;DHT22;11117;48.644;9.006;2023-05-10T02:42:54;12.10;99.90
21906;DHT22;11117;48.644;9.006;2023-05-10T02:45:24;12.20;99.90
21906;DHT22;11117;48.644;9.006;2023-05-10T02:47:51;12.20;99.90
21906;DHT22;11117;48.644;9.006;2023-05-10T02:50:16;12.20;99.90
21906;DHT22;11117;48.644;9.006;2023-05-10T02:52:47;12.30;99.90
21906;DHT22;11117;48.644;9.006;2023-05-10T02:55:16;12.30;99.90
21906;DHT22;11117;48.644;9.006;2023-05-10T02:57:56;12.30;99.90
21906;DHT22;11117;48.644;9.006;2023-05-10T03:00:24;12.30;99.90
21906;DHT22;11117;48.644;9.006;2023-05-10T03:02:50;12.40;99.90
21906;DHT22;11117;48.644;9.006;2023-05-10T03:05:15;12.40;99.90
21906;DHT22;11117;48.644;9.006;2023-05-10T03:07:41;12.50;99.90
21906;DHT22;11117;48.644;9.006;2023-05-10T03:10:07;12.60;99.90
21906;DHT22;11117;48.644;9.006;2023-05-10T03:15:55;12.50;99.90
21906;DHT22;11117;48.644;9.006;2023-05-10T03:18:29;12.50;99.90
21906;DHT22;11117;48.644;9.006;2023-05-10T03:21:02;12.50;99.90
21906;DHT22;11117;48.644;9.006;2023-05-10T03:24:04;12.50;99.90
21906;DHT22;11117;48.644;9.006;2023-05-10T03:26:31;12.60;99.90
21906;DHT22;11117;48.644;9.006;2023-05-10T03:28:57;12.60;99.90
21906;DHT22;11117;48.644;9.006;2023-05-10T03:31:24;12.70;99.90
21906;DHT22;11117;48.644;9.006;2023-05-10T03:33:50;12.60;99.90
21906;DHT22;11117;48.644;9.006;2023-05-10T03:36:17;12.60;99.90
21906;DHT22;11117;48.644;9.006;2023-05-10T03:38:42;12.70;99.90
21906;DHT22;11117;48.644;9.006;2023-05-10T03:41:08;12.60;99.90
21906;DHT22;11117;48.644;9.006;2023-05-10T03:43:33;12.60;99.90
21906;DHT22;11117;48.644;9.006;2023-05-10T03:46:04;12.50;99.90
21906;DHT22;11117;48.644;9.006;2023-05-10T03:48:31;12.50;99.90
21906;DHT22;11117;48.644;9.006;2023-05-10T03:50:57;12.40;99.90
21906;DHT22;11117;48.644;9.006;2023-05-10T03:53:23;12.50;99.90
21906;DHT22;11117;48.644;9.006;2023-05-10T03:55:49;12.40;99.90
21906;DHT22;11117;48.644;9.006;2023-05-10T03:58:14;12.30;99.90
21906;DHT22;11117;48.644;9.006;2023-05-10T04:00:40;12.20;99.90
21906;DHT22;11117;48.644;9.006;2023-05-10T04:03:05;12.20;99.90
21906;DHT22;11117;48.644;9.006;2023-05-10T04:05:31;12.10;99.90
21906;DHT22;11117;48.644;9.006;2023-05-10T04:07:56;12.10;99.90
21906;DHT22;11117;48.644;9.006;2023-05-10T04:10:22;12.10;99.90
21906;DHT22;11117;48.644;9.006;2023-05-10T04:12:47;12.10;99.90
21906;DHT22;11117;48.644;9.006;2023-05-10T04:15:13;12.10;99.90
21906;DHT22;11117;48.644;9.006;2023-05-10T04:17:39;12.10;99.90
21906;DHT22;11117;48.644;9.006;2023-05-10T04:20:05;12.20;99.90
21906;DHT22;11117;48.644;9.006;2023-05-10T04:22:32;12.20;99.90
21906;DHT22;11117;48.644;9.006;2023-05-10T04:24:57;12.30;99.90
21906;DHT22;11117;48.644;9.006;2023-05-10T04:27:23;12.30;99.90
21906;DHT22;11117;48.644;9.006;2023-05-10T04:29:48;12.30;99.90
21906;DHT22;11117;48.644;9.006;2023-05-10T04:32:14;12.40;99.90
21906;DHT22;11117;48.644;9.006;2023-05-10T04:34:39;12.30;99.90
21906;DHT22;11117;48.644;9.006;2023-05-10T04:37:07;12.40;99.90
21906;DHT22;11117;48.644;9.006;2023-05-10T04:39:32;12.30;99.90
21906;DHT22;11117;48.644;9.006;2023-05-10T04:41:58;12.40;99.90
21906;DHT22;11117;48.644;9.006;2023-05-10T04:44:23;12.50;99.90
21906;DHT22;11117;48.644;9.006;2023-05-10T04:46:49;12.50;99.90
21906;DHT22;11117;48.644;9.006;2023-05-10T04:49:15;12.60;99.90
21906;DHT22;11117;48.644;9.006;2023-05-10T04:51:40;12.60;99.90
21906;DHT22;11117;48.644;9.006;2023-05-10T04:54:06;12.70;99.90
21906;DHT22;11117;48.644;9.006;2023-05-10T04:56:33;12.80;99.90
21906;DHT22;11117;48.644;9.006;2023-05-10T04:58:58;12.90;99.90
21906;DHT22;11117;48.644;9.006;2023-05-10T05:01:24;12.80;99.90
21906;DHT22;11117;48.644;9.006;2023-05-10T05:03:49;12.80;99.90
21906;DHT22;11117;48.644;9.006;2023-05-10T05:06:15;12.60;99.90
21906;DHT22;11117;48.644;9.006;2023-05-10T05:08:40;12.60;99.90
21906;DHT22;11117;48.644;9.006;2023-05-10T05:11:06;12.70;99.90
21906;DHT22;11117;48.644;9.006;2023-05-10T05:13:31;12.80;99.90
21906;DHT22;11117;48.644;9.006;2023-05-10T05:15:57;12.90;99.90
21906;DHT22;11117;48.644;9.006;2023-05-10T05:18:22;13.10;99.90
21906;DHT22;11117;48.644;9.006;2023-05-10T05:20:48;13.10;99.90
21906;DHT22;11117;48.644;9.006;2023-05-10T05:23:13;13.20;99.90
21906;DHT22;11117;48.644;9.006;2023-05-10T05:25:39;13.30;99.90
21906;DHT22;11117;48.644;9.006;2023-05-10T05:28:04;13.40;99.90
21906;DHT22;11117;48.644;9.006;2023-05-10T05:30:30;13.50;99.90
21906;DHT22;11117;48.644;9.006;2023-05-10T05:32:55;13.50;99.90
21906;DHT22;11117;48.644;9.006;2023-05-10T05:35:21;13.50;99.90
21906;DHT22;11117;48.644;9.006;2023-05-10T05:37:47;13.50;99.90
21906;DHT22;11117;48.644;9.006;2023-05-10T05:40:13;13.50;99.90
21906;DHT22;11117;48.644;9.006;2023-05-10T05:42:38;13.70;99.90
21906;DHT22;11117;48.644;9.006;2023-05-10T05:45:04;13.60;99.90
21906;DHT22;11117;48.644;9.006;2023-05-10T05:47:30;13.60;99.90
21906;DHT22;11117;48.644;9.006;2023-05-10T05:49:55;13.70;99.90
21906;DHT22;11117;48.644;9.006;2023-05-10T05:52:21;13.90;99.90
21906;DHT22;11117;48.644;9.006;2023-05-10T05:54:46;13.90;99.90
21906;DHT22;11117;48.644;9.006;2023-05-10T05:57:12;14.10;99.90
21906;DHT22;11117;48.644;9.006;2023-05-10T05:59:37;14.20;99.90
21906;DHT22;11117;48.644;9.006;2023-05-10T06:02:04;14.30;99.90
21906;DHT22;11117;48.644;9.006;2023-05-10T06:04:29;14.40;99.90
21906;DHT22;11117;48.644;9.006;2023-05-10T06:06:55;14.50;99.90
21906;DHT22;11117;48.644;9.006;2023-05-10T06:09:20;14.60;99.90
21906;DHT22;11117;48.644;9.006;2023-05-10T06:11:46;14.60;99.90
21906;DHT22;11117;48.644;9.006;2023-05-10T06:14:11;14.70;99.90
21906;DHT22;11117;48.644;9.006;2023-05-10T06:16:37;14.40;99.90
21906;DHT22;11117;48.644;9.006;2023-05-10T06:19:02;14.50;99.90
21906;DHT22;11117;48.644;9.006;2023-05-10T06:21:28;14.30;99.90
21906;DHT22;11117;48.644;9.006;2023-05-10T06:23:53;14.40;99.90
21906;DHT22;11117;48.644;9.006;2023-05-10T06:26:19;14.50;99.90
21906;DHT22;11117;48.644;9.006;2023-05-10T06:28:44;14.60;99.90
21906;DHT22;11117;48.644;9.006;2023-05-10T06:31:10;14.80;99.90
21906;DHT22;11117;48.644;9.006;2023-05-10T06:33:35;14.90;99.90
21906;DHT22;11117;48.644;9.006;2023-05-10T06:36:01;14.90;99.90
21906;DHT22;11117;48.644;9.006;2023-05-10T06:38:27;15.00;99.90
21906;DHT22;11117;48.644;9.006;2023-05-10T06:40:52;15.10;99.90
21906;DHT22;11117;48.644;9.006;2023-05-10T06:43:18;15.10;99.90
21906;DHT22;11117;48.644;9.006;2023-05-10T06:45:43;15.00;99.90
21906;DHT22;11117;48.644;9.006;2023-05-10T06:48:09;15.20;99.90
21906;DHT22;11117;48.644;9.006;2023-05-10T06:50:35;15.40;99.90
21906;DHT22;11117;48.644;9.006;2023-05-10T06:53:00;15.40;99.90
21906;DHT22;11117;48.644;9.006;2023-05-10T06:55:26;15.60;99.90
21906;DHT22;11117;48.644;9.006;2023-05-10T06:57:52;15.50;99.90
21906;DHT22;11117;48.644;9.006;2023-05-10T07:00:18;15.70;99.90
21906;DHT22;11117;48.644;9.006;2023-05-10T07:02:44;15.90;99.90
21906;DHT22;11117;48.644;9.006;2023-05-10T07:05:09;16.10;99.90
21906;DHT22;11117;48.644;9.006;2023-05-10T07:07:35;16.20;99.90
21906;DHT22;11117;48.644;9.006;2023-05-10T07:10:01;16.30;99.90
21906;DHT22;11117;48.644;9.006;2023-05-10T07:12:27;16.20;99.90
21906;DHT22;11117;48.644;9.006;2023-05-10T07:14:53;16.40;99.90
21906;DHT22;11117;48.644;9.006;2023-05-10T07:17:18;16.50;99.90
21906;DHT22;11117;48.644;9.006;2023-05-10T07:19:44;16.60;99.90
21906;DHT22;11117;48.644;9.006;2023-05-10T07:22:11;16.70;99.90
21906;DHT22;11117;48.644;9.006;2023-05-10T07:24:36;16.80;99.90
21906;DHT22;11117;48.644;9.006;2023-05-10T07:27:02;16.90;99.90
21906;DHT22;11117;48.644;9.006;2023-05-10T07:29:27;17.00;99.90
21906;DHT22;11117;48.644;9.006;2023-05-10T07:31:53;17.10;99.90
21906;DHT22;11117;48.644;9.006;2023-05-10T07:34:19;16.90;99.90
21906;DHT22;11117;48.644;9.006;2023-05-10T07:36:44;17.00;99.90
21906;DHT22;11117;48.644;9.006;2023-05-10T07:39:10;16.90;99.90
21906;DHT22;11117;48.644;9.006;2023-05-10T07:41:35;16.70;99.90
21906;DHT22;11117;48.644;9.006;2023-05-10T07:44:01;16.50;99.90
21906;DHT22;11117;48.644;9.006;2023-05-10T07:46:26;16.60;99.90
21906;DHT22;11117;48.644;9.006;2023-05-10T07:48:52;16.40;99.90
21906;DHT22;11117;48.644;9.006;2023-05-10T07:51:17;16.60;99.90
21906;DHT22;11117;48.644;9.006;2023-05-10T07:53:43;16.50;99.90
21906;DHT22;11117;48.644;9.006;2023-05-10T07:56:28;16.40;99.90
21906;DHT22;11117;48.644;9.006;2023-05-10T07:59:03;16.60;99.90
21906;DHT22;11117;48.644;9.006;2023-05-10T08:01:31;16.80;99.90
21906;DHT22;11117;48.644;9.006;2023-05-10T08:03:56;16.60;99.90
21906;DHT22;11117;48.644;9.006;2023-05-10T08:06:22;16.50;99.90
21906;DHT22;11117;48.644;9.006;2023-05-10T08:08:48;16.50;99.90
21906;DHT22;11117;48.644;9.006;2023-05-10T08:11:13;16.50;99.90
21906;DHT22;11117;48.644;9.006;2023-05-10T08:13:39;16.60;99.90
21906;DHT22;11117;48.644;9.006;2023-05-10T08:16:05;16.80;99.90
21906;DHT22;11117;48.644;9.006;2023-05-10T08:18:30;16.70;99.90
21906;DHT22;11117;48.644;9.006;2023-05-10T08:20:56;16.60;99.90
21906;DHT22;11117;48.644;9.006;2023-05-10T08:23:21;16.30;99.90
21906;DHT22;11117;48.644;9.006;2023-05-10T08:25:47;16.20;99.90
21906;DHT22;11117;48.644;9.006;2023-05-10T08:28:12;16.20;99.90
21906;DHT22;11117;48.644;9.006;2023-05-10T08:30:38;16.30;99.90
21906;DHT22;11117;48.644;9.006;2023-05-10T08:33:03;16.10;99.90
21906;DHT22;11117;48.644;9.006;2023-05-10T08:35:29;16.10;99.90
21906;DHT22;11117;48.644;9.006;2023-05-10T08:37:54;16.20;99.90
21906;DHT22;11117;48.644;9.006;2023-05-10T08:40:20;16.50;99.90
21906;DHT22;11117;48.644;9.006;2023-05-10T08:42:54;16.60;99.90
21906;DHT22;11117;48.644;9.006;2023-05-10T08:45:23;16.90;99.90
21906;DHT22;11117;48.644;9.006;2023-05-10T08:47:49;16.80;99.90
21906;DHT22;11117;48.644;9.006;2023-05-10T08:50:15;16.70;99.90
21906;DHT22;11117;48.644;9.006;2023-05-10T08:52:42;16.80;99.90
21906;DHT22;11117;48.644;9.006;2023-05-10T08:55:09;16.50;99.90
21906;DHT22;11117;48.644;9.006;2023-05-10T08:57:35;16.60;99.90
21906;DHT22;11117;48.644;9.006;2023-05-10T09:00:01;16.80;99.90
21906;DHT22;11117;48.644;9.006;2023-05-10T09:02:27;16.80;99.90
21906;DHT22;11117;48.644;9.006;2023-05-10T09:04:53;16.90;99.90
21906;DHT22;11117;48.644;9.006;2023-05-10T09:07:19;16.80;99.90
21906;DHT22;11117;48.644;9.006;2023-05-10T09:09:45;16.90;99.90
21906;DHT22;11117;48.644;9.006;2023-05-10T09:12:13;16.60;99.90
21906;DHT22;11117;48.644;9.006;2023-05-10T09:14:38;16.30;99.90
21906;DHT22;11117;48.644;9.006;2023-05-10T09:17:05;16.20;99.90
21906;DHT22;11117;48.644;9.006;2023-05-10T09:19:30;15.90;99.90
21906;DHT22;11117;48.644;9.006;2023-05-10T09:21:56;16.10;99.90
21906;DHT22;11117;48.644;9.006;2023-05-10T09:24:25;16.00;99.90
21906;DHT22;11117;48.644;9.006;2023-05-10T09:26:51;16.30;99.90
21906;DHT22;11117;48.644;9.006;2023-05-10T09:29:17;16.60;99.90
21906;DHT22;11117;48.644;9.006;2023-05-10T09:31:48;16.60;99.90
21906;DHT22;11117;48.644;9.006;2023-05-10T09:34:21;16.50;99.90
21906;DHT22;11117;48.644;9.006;2023-05-10T09:36:55;16.30;99.90
21906;DHT22;11117;48.644;9.006;2023-05-10T09:39:30;16.30;99.90
21906;DHT22;11117;48.644;9.006;2023-05-10T09:41:55;16.20;99.90
21906;DHT22;11117;48.644;9.006;2023-05-10T09:44:21;16.50;99.90
21906;DHT22;11117;48.644;9.006;2023-05-10T09:46:50;16.60;99.90
21906;DHT22;11117;48.644;9.006;2023-05-10T09:49:16;16.80;99.90
21906;DHT22;11117;48.644;9.006;2023-05-10T09:51:41;17.10;99.90
21906;DHT22;11117;48.644;9.006;2023-05-10T09:56:36;17.20;99.90
21906;DHT22;11117;48.644;9.006;2023-05-10T09:59:03;17.30;99.90
21906;DHT22;11117;48.644;9.006;2023-05-10T10:01:29;17.30;99.90
21906;DHT22;11117;48.644;9.006;2023-05-10T10:03:54;17.50;99.90
21906;DHT22;11117;48.644;9.006;2023-05-10T10:06:20;17.80;99.90
21906;DHT22;11117;48.644;9.006;2023-05-10T10:08:46;18.00;99.90
21906;DHT22;11117;48.644;9.006;2023-05-10T10:11:11;18.10;99.90
21906;DHT22;11117;48.644;9.006;2023-05-10T10:13:37;17.90;99.90
21906;DHT22;11117;48.644;9.006;2023-05-10T10:16:03;18.30;99.90
21906;DHT22;11117;48.644;9.006;2023-05-10T10:18:30;18.50;99.90
21906;DHT22;11117;48.644;9.006;2023-05-10T10:20:56;18.20;99.90
21906;DHT22;11117;48.644;9.006;2023-05-10T10:23:21;17.90;99.90
21906;DHT22;11117;48.644;9.006;2023-05-10T10:25:48;18.10;99.90
21906;DHT22;11117;48.644;9.006;2023-05-10T10:30:50;17.90;99.90
21906;DHT22;11117;48.644;9.006;2023-05-10T10:36:15;17.30;99.90
21906;DHT22;11117;48.644;9.006;2023-05-10T10:41:34;16.80;99.90
21906;DHT22;11117;48.644;9.006;2023-05-10T10:44:23;16.10;99.90
21906;DHT22;11117;48.644;9.006;2023-05-10T10:49:37;14.80;99.90
21906;DHT22;11117;48.644;9.006;2023-05-10T10:52:32;14.60;99.90
21906;DHT22;11117;48.644;9.006;2023-05-10T10:55:02;14.50;99.90
21906;DHT22;11117;48.644;9.006;2023-05-10T10:57:31;13.90;99.90
21906;DHT22;11117;48.644;9.006;2023-05-10T11:00:20;13.80;99.90
21906;DHT22;11117;48.644;9.006;2023-05-10T11:03:10;13.60;99.90
21906;DHT22;11117;48.644;9.006;2023-05-10T11:05:41;13.50;99.90
21906;DHT22;11117;48.644;9.006;2023-05-10T11:10:51;13.70;99.90
21906;DHT22;11117;48.644;9.006;2023-05-10T11:13:16;13.90;99.90
21906;DHT22;11117;48.644;9.006;2023-05-10T11:15:52;13.70;99.90
21906;DHT22;11117;48.644;9.006;2023-05-10T11:18:20;13.40;99.90
21906;DHT22;11117;48.644;9.006;2023-05-10T11:23:20;13.40;99.90
21906;DHT22;11117;48.644;9.006;2023-05-10T11:25:48;13.60;99.90
21906;DHT22;11117;48.644;9.006;2023-05-10T11:28:16;13.80;99.90
21906;DHT22;11117;48.644;9.006;2023-05-10T11:30:43;14.10;99.90
21906;DHT22;11117;48.644;9.006;2023-05-10T11:33:09;14.70;99.90
21906;DHT22;11117;48.644;9.006;2023-05-10T11:35:40;15.00;99.90
21906;DHT22;11117;48.644;9.006;2023-05-10T11:38:10;15.60;99.90
21906;DHT22;11117;48.644;9.006;2023-05-10T11:40:36;15.60;99.90
21906;DHT22;11117;48.644;9.006;2023-05-10T11:43:03;16.10;99.90
21906;DHT22;11117;48.644;9.006;2023-05-10T11:45:31;16.40;99.90
21906;DHT22;11117;48.644;9.006;2023-05-10T11:47:57;17.10;99.90
21906;DHT22;11117;48.644;9.006;2023-05-10T11:50:23;17.50;99.90
21906;DHT22;11117;48.644;9.006;2023-05-10T11:52:56;17.40;99.90
21906;DHT22;11117;48.644;9.006;2023-05-10T11:55:22;17.60;99.90
21906;DHT22;11117;48.644;9.006;2023-05-10T11:57:52;17.60;99.90
21906;DHT22;11117;48.644;9.006;2023-05-10T12:00:17;17.80;99.90
21906;DHT22;11117;48.644;9.006;2023-05-10T12:02:43;17.90;99.90
21906;DHT22;11117;48.644;9.006;2023-05-10T12:05:09;17.90;99.90
21906;DHT22;11117;48.644;9.006;2023-05-10T12:07:35;17.40;99.90
21906;DHT22;11117;48.644;9.006;2023-05-10T12:10:09;17.10;99.90
21906;DHT22;11117;48.644;9.006;2023-05-10T12:12:42;17.10;99.90
21906;DHT22;11117;48.644;9.006;2023-05-10T12:15:27;17.10;99.90
21906;DHT22;11117;48.644;9.006;2023-05-10T12:17:53;17.20;99.90
21906;DHT22;11117;48.644;9.006;2023-05-10T12:20:20;17.20;99.90
21906;DHT22;11117;48.644;9.006;2023-05-10T12:22:54;17.20;99.90
21906;DHT22;11117;48.644;9.006;2023-05-10T12:25:22;17.10;99.90
21906;DHT22;11117;48.644;9.006;2023-05-10T12:27:51;16.90;99.90
21906;DHT22;11117;48.644;9.006;2023-05-10T12:30:31;16.60;99.90
21906;DHT22;11117;48.644;9.006;2023-05-10T12:33:17;16.70;99.90
21906;DHT22;11117;48.644;9.006;2023-05-10T12:35:45;16.60;99.90
21906;DHT22;11117;48.644;9.006;2023-05-10T12:41:00;17.20;99.90
21906;DHT22;11117;48.644;9.006;2023-05-10T12:43:26;17.00;99.90
21906;DHT22;11117;48.644;9.006;2023-05-10T12:45:52;17.50;99.90
21906;DHT22;11117;48.644;9.006;2023-05-10T12:48:18;17.60;99.90
21906;DHT22;11117;48.644;9.006;2023-05-10T12:50:44;17.60;99.90
21906;DHT22;11117;48.644;9.006;2023-05-10T12:53:09;18.00;99.90
21906;DHT22;11117;48.644;9.006;2023-05-10T12:55:35;17.70;99.90
21906;DHT22;11117;48.644;9.006;2023-05-10T12:58:00;17.50;99.90
21906;DHT22;11117;48.644;9.006;2023-05-10T13:00:26;17.50;99.90
21906;DHT22;11117;48.644;9.006;2023-05-10T13:02:52;17.60;99.90
21906;DHT22;11117;48.644;9.006;2023-05-10T13:05:17;17.80;99.90
21906;DHT22;11117;48.644;9.006;2023-05-10T13:07:43;17.70;99.90
21906;DHT22;11117;48.644;9.006;2023-05-10T13:10:08;17.90;99.90
21906;DHT22;11117;48.644;9.006;2023-05-10T13:12:34;17.40;99.90
21906;DHT22;11117;48.644;9.006;2023-05-10T13:14:59;17.50;99.90
21906;DHT22;11117;48.644;9.006;2023-05-10T13:17:25;17.30;99.90
21906;DHT22;11117;48.644;9.006;2023-05-10T13:19:51;17.40;99.90
21906;DHT22;11117;48.644;9.006;2023-05-10T13:22:17;17.70;99.90
21906;DHT22;11117;48.644;9.006;2023-05-10T13:24:42;17.70;99.90
21906;DHT22;11117;48.644;9.006;2023-05-10T13:27:08;17.50;99.90
21906;DHT22;11117;48.644;9.006;2023-05-10T13:29:34;17.40;99.90
21906;DHT22;11117;48.644;9.006;2023-05-10T13:32:00;17.30;99.90
21906;DHT22;11117;48.644;9.006;2023-05-10T13:34:25;17.60;99.90
21906;DHT22;11117;48.644;9.006;2023-05-10T13:36:51;17.70;99.90
21906;DHT22;11117;48.644;9.006;2023-05-10T13:39:17;18.00;99.90
21906;DHT22;11117;48.644;9.006;2023-05-10T13:41:42;18.30;99.90
21906;DHT22;11117;48.644;9.006;2023-05-10T13:44:08;18.50;99.90
21906;DHT22;11117;48.644;9.006;2023-05-10T13:46:33;18.30;99.90
21906;DHT22;11117;48.644;9.006;2023-05-10T13:48:59;18.20;99.90
21906;DHT22;11117;48.644;9.006;2023-05-10T13:51:24;18.00;99.90
21906;DHT22;11117;48.644;9.006;2023-05-10T13:53:50;18.00;99.90
21906;DHT22;11117;48.644;9.006;2023-05-10T13:56:15;18.20;99.90
21906;DHT22;11117;48.644;9.006;2023-05-10T13:58:41;18.20;99.90
21906;DHT22;11117;48.644;9.006;2023-05-10T14:01:06;17.90;99.90
21906;DHT22;11117;48.644;9.006;2023-05-10T14:03:32;18.30;99.90
21906;DHT22;11117;48.644;9.006;2023-05-10T14:05:58;18.60;99.90
21906;DHT22;11117;48.644;9.006;2023-05-10T14:08:23;18.20;99.90
21906;DHT22;11117;48.644;9.006;2023-05-10T14:10:49;18.40;99.90
21906;DHT22;11117;48.644;9.006;2023-05-10T14:13:14;18.60;99.90
21906;DHT22;11117;48.644;9.006;2023-05-10T14:15:40;18.70;99.90
21906;DHT22;11117;48.644;9.006;2023-05-10T14:18:06;18.70;99.90
21906;DHT22;11117;48.644;9.006;2023-05-10T14:20:31;18.20;99.90
21906;DHT22;11117;48.644;9.006;2023-05-10T14:22:57;18.30;99.90
21906;DHT22;11117;48.644;9.006;2023-05-10T14:25:23;18.10;99.90
21906;DHT22;11117;48.644;9.006;2023-05-10T14:27:49;17.90;99.90
21906;DHT22;11117;48.644;9.006;2023-05-10T14:30:14;18.40;99.90
21906;DHT22;11117;48.644;9.006;2023-05-10T14:32:40;18.70;99.90
21906;DHT22;11117;48.644;9.006;2023-05-10T14:35:06;18.80;99.90
21906;DHT22;11117;48.644;9.006;2023-05-10T14:37:31;19.10;99.90
21906;DHT22;11117;48.644;9.006;2023-05-10T14:39:57;18.40;99.90
21906;DHT22;11117;48.644;9.006;2023-05-10T14:42:22;18.20;99.90
21906;DHT22;11117;48.644;9.006;2023-05-10T14:44:48;18.00;99.90
21906;DHT22;11117;48.644;9.006;2023-05-10T14:47:13;17.90;99.90
21906;DHT22;11117;48.644;9.006;2023-05-10T14:49:39;17.90;99.90
21906;DHT22;11117;48.644;9.006;2023-05-10T14:52:06;17.70;99.90
21906;DHT22;11117;48.644;9.006;2023-05-10T14:54:32;17.80;99.90
21906;DHT22;11117;48.644;9.006;2023-05-10T14:56:57;17.80;99.70
21906;DHT22;11117;48.644;9.006;2023-05-10T14:59:23;17.90;99.20
21906;DHT22;11117;48.644;9.006;2023-05-10T15:01:48;17.50;98.60
21906;DHT22;11117;48.644;9.006;2023-05-10T15:04:14;17.20;98.80
21906;DHT22;11117;48.644;9.006;2023-05-10T15:06:39;16.90;98.40
21906;DHT22;11117;48.644;9.006;2023-05-10T15:09:05;17.10;99.30
21906;DHT22;11117;48.644;9.006;2023-05-10T15:11:30;17.40;99.70
21906;DHT22;11117;48.644;9.006;2023-05-10T15:13:56;17.30;99.90
21906;DHT22;11117;48.644;9.006;2023-05-10T15:16:21;17.20;99.90
21906;DHT22;11117;48.644;9.006;2023-05-10T15:18:48;17.40;98.60
21906;DHT22;11117;48.644;9.006;2023-05-10T15:21:13;17.40;99.50
21906;DHT22;11117;48.644;9.006;2023-05-10T15:23:39;17.50;99.90
21906;DHT22;11117;48.644;9.006;2023-05-10T15:26:04;17.00;99.20
21906;DHT22;11117;48.644;9.006;2023-05-10T15:28:30;17.20;99.90
21906;DHT22;11117;48.644;9.006;2023-05-10T15:30:56;16.90;99.30
21906;DHT22;11117;48.644;9.006;2023-05-10T15:33:21;16.90;99.90
21906;DHT22;11117;48.644;9.006;2023-05-10T15:35:47;17.00;99.90
21906;DHT22;11117;48.644;9.006;2023-05-10T15:38:12;17.20;99.90
21906;DHT22;11117;48.644;9.006;2023-05-10T15:40:38;17.40;99.90
21906;DHT22;11117;48.644;9.006;2023-05-10T15:43:04;17.70;99.90
21906;DHT22;11117;48.644;9.006;2023-05-10T15:45:29;17.50;99.80
21906;DHT22;11117;48.644;9.006;2023-05-10T15:47:55;17.40;99.90
21906;DHT22;11117;48.644;9.006;2023-05-10T15:50:20;17.50;99.90
21906;DHT22;11117;48.644;9.006;2023-05-10T15:52:46;17.70;99.90
21906;DHT22;11117;48.644;9.006;2023-05-10T15:55:12;17.90;99.90
21906;DHT22;11117;48.644;9.006;2023-05-10T15:57:41;17.80;98.80
21906;DHT22;11117;48.644;9.006;2023-05-10T16:00:08;17.70;99.60
21906;DHT22;11117;48.644;9.006;2023-05-10T16:02:34;18.10;99.90
21906;DHT22;11117;48.644;9.006;2023-05-10T16:04:59;18.10;99.50
21906;DHT22;11117;48.644;9.006;2023-05-10T16:07:25;18.00;99.00